Time;durP1;ratioP1;P1;durP2;ratioP2;P2;SDS_P1;SDS_P2;PMS_P1;PMS_P2;Temp;Humidity;BMP_temperature;BMP_pressure;BME280_temperature;BME280_humidity;BME280_pressure;Samples;Min_cycle;Max_cycle;Signal;HPM_P1;HPM_P2
2022/03/27 00:00:13;;;;;;;5.03;3.07;;;;;;;9.30;91.73;103224.03;5053193;28;20029;-35
2022/03/27 00:02:38;;;;;;;5.65;3.45;;;;;;;9.33;90.66;103223.72;5053115;28;20068;-35
2022/03/27 00:05:04;;;;;;;5.72;3.65;;;;;;;9.26;90.76;103228.91;5052198;28;20025;-35
2022/03/27 00:07:29;;;;;;;6.25;3.50;;;;;;;9.21;91.68;103216.91;5052638;28;20079;-35
2022/03/27 00:09:55;;;;;;;4.20;3.13;;;;;;;9.17;92.50;103221.78;5053505;28;20060;-35
2022/03/27 00:12:21;;;;;;;6.87;3.50;;;;;;;9.16;92.00;103227.34;5052312;28;20434;-35
2022/03/27 00:14:46;;;;;;;;;;;;;;;9.26;90.94;103228.06;5053250;28;20033;-35
2022/03/27 00:17:11;;;;;;;6.23;3.70;;;;;;;9.14;91.82;103216.72;5052481;28;19909;-35
2022/03/27 00:19:37;;;;;;;5.73;3.70;;;;;;;8.98;92.45;103212.13;5052346;28;20256;-36
2022/03/27 00:22:03;;;;;;;4.90;3.40;;;;;;;9.05;93.14;103216.88;5053286;28;20441;-35
2022/03/27 00:24:29;;;;;;;5.30;3.60;;;;;;;9.02;93.26;103226.13;5052790;28;20021;-35
2022/03/27 00:26:55;;;;;;;6.40;4.43;;;;;;;8.87;95.01;103217.78;5052999;28;20112;-35
2022/03/27 00:29:22;;;;;;;6.75;4.03;;;;;;;8.83;95.97;103227.22;5052442;28;20028;-35
2022/03/27 00:31:47;;;;;;;;;;;;;;;8.74;96.77;103226.34;5052769;28;20049;-35
2022/03/27 00:34:12;;;;;;;5.75;4.30;;;;;;;8.64;96.97;103227.47;5052380;28;19963;-35
2022/03/27 00:36:38;;;;;;;5.20;4.10;;;;;;;8.67;95.70;103221.75;5052858;28;20021;-35
2022/03/27 00:39:03;;;;;;;5.97;4.18;;;;;;;8.66;96.55;103220.06;5052265;28;20452;-35
2022/03/27 00:41:30;;;;;;;5.80;4.40;;;;;;;8.63;98.03;103226.59;5052406;28;20037;-35
2022/03/27 00:43:55;;;;;;;5.78;4.20;;;;;;;8.54;97.95;103221.31;5052478;28;20381;-35
2022/03/27 00:46:21;;;;;;;6.32;4.40;;;;;;;8.56;96.58;103211.25;5052126;28;20040;-35
2022/03/27 00:48:46;;;;;;;6.70;4.40;;;;;;;8.57;97.68;103223.72;5052292;28;20025;-35
2022/03/27 00:51:12;;;;;;;4.63;3.90;;;;;;;8.63;97.10;103220.38;5052450;28;20078;-35
2022/03/27 00:53:37;;;;;;;5.17;3.90;;;;;;;8.65;96.48;103229.16;5052358;28;20117;-35
2022/03/27 00:56:02;;;;;;;4.77;4.07;;;;;;;8.66;96.17;103220.06;5052385;28;20362;-35
2022/03/27 00:58:28;;;;;;;7.33;3.97;;;;;;;8.69;95.71;103222.44;5052482;28;20282;-35
2022/03/27 01:01:03;;;;;;;6.90;4.13;;;;;;;8.66;95.26;103225.47;5052737;28;20060;-35
2022/03/27 01:03:31;;;;;;;6.95;3.95;;;;;;;8.66;96.12;103220.06;5052665;28;20036;-35
2022/03/27 01:06:00;;;;;;;6.78;4.50;;;;;;;8.64;95.26;103222.94;5052325;28;20032;-35
2022/03/27 01:11:17;;;;;;;5.28;4.20;;;;;;;8.69;94.68;103219.75;5052438;28;20044;-35
2022/03/27 01:13:52;;;;;;;5.95;4.35;;;;;;;8.68;95.72;103209.94;5052290;28;20032;-35
2022/03/27 01:16:38;;;;;;;6.90;4.57;;;;;;;8.51;96.73;103217.97;5052402;28;20028;-35
2022/03/27 01:19:05;;;;;;;6.00;4.68;;;;;;;8.42;96.98;103215.38;5051964;28;20029;-35
2022/03/27 01:21:31;;;;;;;5.80;4.50;;;;;;;8.42;97.15;103221.59;5052085;28;20171;-35
2022/03/27 01:23:57;;;;;;;9.48;4.53;;;;;;;8.35;96.88;103223.22;5050533;28;20161;-35
2022/03/27 01:26:23;;;;;;;7.05;4.72;;;;;;;8.27;96.80;103204.28;5052212;28;20496;-35
2022/03/27 01:28:49;;;;;;;5.93;4.38;;;;;;;8.41;96.23;103213.69;5051857;28;20025;-35
2022/03/27 01:31:15;;;;;;;;;;;;;;;8.54;94.44;103211.41;5053400;28;20078;-35
2022/03/27 01:33:40;;;;;;;5.72;4.38;;;;;;;8.27;95.35;103199.75;5055120;28;19913;-35
2022/03/27 01:36:06;;;;;;;6.70;4.60;;;;;;;8.43;95.36;103214.34;5055406;28;20114;-35
2022/03/27 01:38:31;;;;;;;7.33;5.50;;;;;;;8.40;94.50;103215.53;5055880;28;20402;-35
2022/03/27 01:40:56;;;;;;;5.93;5.10;;;;;;;8.23;95.21;103186.75;5055621;28;20753;-36
2022/03/27 01:43:22;;;;;;;7.57;4.90;;;;;;;8.32;95.18;103209.22;5055289;28;20043;-35
2022/03/27 01:45:48;;;;;;;6.28;4.55;;;;;;;8.29;95.74;103215.75;5054936;28;20029;-35
2022/03/27 01:48:13;;;;;;;5.50;4.75;;;;;;;8.34;95.06;103213.41;5055672;28;20103;-35
2022/03/27 01:50:39;;;;;;;5.97;4.30;;;;;;;8.29;95.61;103209.50;5055390;28;20033;-35
2022/03/27 01:53:04;;;;;;;7.87;5.60;;;;;;;8.33;96.17;103217.13;5055342;28;20406;-35
2022/03/27 01:55:29;;;;;;;6.63;5.50;;;;;;;8.22;96.63;103198.53;5055344;28;20416;-35
2022/03/27 01:57:55;;;;;;;6.93;5.47;;;;;;;8.30;96.64;103209.38;5055282;28;20272;-35
2022/03/27 02:00:20;;;;;;;7.23;6.10;;;;;;;8.29;97.57;103207.66;5055237;28;20159;-35
2022/03/27 02:02:46;;;;;;;12.03;7.40;;;;;;;8.14;98.65;103210.09;5055358;28;20052;-35
2022/03/27 02:05:11;;;;;;;7.70;6.93;;;;;;;8.11;98.91;103196.94;5055305;28;20021;-35
2022/03/27 02:07:38;;;;;;;10.77;8.38;;;;;;;8.02;100.00;103205.13;5054053;28;20034;-35
2022/03/27 02:10:05;;;;;;;11.13;9.00;;;;;;;7.91;100.00;103209.75;5054949;28;20033;-35
2022/03/27 02:12:34;;;;;;;9.88;8.35;;;;;;;8.06;100.00;103211.91;5054321;28;20445;-35
2022/03/27 02:15:00;;;;;;;10.95;8.88;;;;;;;7.99;100.00;103217.88;5055163;28;20017;-35
2022/03/27 02:17:25;;;;;;;11.20;8.80;;;;;;;7.91;100.00;103214.31;5054350;28;20394;-35
2022/03/27 02:19:51;;;;;;;9.60;8.70;;;;;;;7.94;100.00;103214.81;5055124;28;20150;-35
2022/03/27 02:22:16;;;;;;;9.17;8.27;;;;;;;7.94;100.00;103219.34;5054258;28;20443;-35
2022/03/27 02:24:41;;;;;;;11.97;8.67;;;;;;;7.84;100.00;103214.06;5055236;28;20044;-35
2022/03/27 02:27:07;;;;;;;10.77;8.50;;;;;;;7.90;100.00;103212.59;5054525;28;20051;-35
2022/03/27 02:29:32;;;;;;;9.50;8.57;;;;;;;7.75;100.00;103183.50;5055041;28;20035;-35
2022/03/27 02:31:57;;;;;;;11.70;9.90;;;;;;;7.64;100.00;103196.38;5054473;28;20029;-35
2022/03/27 02:34:23;;;;;;;13.53;9.23;;;;;;;7.74;100.00;103221.38;5054600;28;20470;-35
2022/03/27 02:36:48;;;;;;;8.60;7.80;;;;;;;7.83;100.00;103215.06;5053611;28;20068;-35
2022/03/27 02:39:14;;;;;;;10.53;9.43;;;;;;;7.73;100.00;103222.38;5054191;28;20120;-35
2022/03/27 02:41:39;;;;;;;9.90;8.60;;;;;;;7.65;100.00;103198.91;5054151;28;20496;-35
2022/03/27 02:44:05;;;;;;;10.83;9.40;;;;;;;7.74;100.00;103218.69;5053190;28;20031;-36
2022/03/27 02:46:30;;;;;;;10.98;9.40;;;;;;;7.76;100.00;103222.09;5054187;28;20057;-35
2022/03/27 02:48:55;;;;;;;9.73;8.77;;;;;;;7.76;100.00;103211.31;5053806;28;20044;-35
2022/03/27 02:51:21;;;;;;;10.70;8.90;;;;;;;7.80;100.00;103217.22;5054125;28;20024;-35
2022/03/27 02:53:46;;;;;;;11.20;10.00;;;;;;;7.59;100.00;103191.44;5054653;28;20035;-35
2022/03/27 02:56:11;;;;;;;10.40;9.30;;;;;;;7.82;100.00;103210.69;5052621;28;20298;-35
2022/03/27 02:58:37;;;;;;;10.57;9.47;;;;;;;7.79;100.00;103208.28;5054570;28;20449;-35
2022/03/27 03:01:03;;;;;;;11.23;9.90;;;;;;;7.75;100.00;103225.75;5054381;28;20049;-35
2022/03/27 03:03:28;;;;;;;10.85;9.85;;;;;;;7.68;100.00;103213.91;5054112;28;20033;-35
2022/03/27 03:05:54;;;;;;;10.20;9.20;;;;;;;7.71;100.00;103214.47;5053324;28;20029;-35
2022/03/27 03:08:20;;;;;;;10.65;9.13;;;;;;;7.78;100.00;103209.28;5053740;28;20025;-35
2022/03/27 03:10:45;;;;;;;10.43;9.33;;;;;;;7.70;100.00;103206.53;5053662;28;20160;-35
2022/03/27 03:13:11;;;;;;;9.35;8.45;;;;;;;7.90;100.00;103201.81;5053399;28;20053;-35
2022/03/27 03:15:37;;;;;;;9.73;8.73;;;;;;;7.92;100.00;103206.06;5054079;28;20025;-35
2022/03/27 03:18:05;;;;;;;11.25;9.35;;;;;;;7.93;100.00;103206.91;5052055;28;20116;-35
2022/03/27 03:20:32;;;;;;;10.80;9.20;;;;;;;7.94;100.00;103204.03;5054054;28;20024;-35
2022/03/27 03:22:57;;;;;;;10.40;9.40;;;;;;;7.94;100.00;103203.19;5053416;28;20377;-35
2022/03/27 03:25:23;;;;;;;12.35;10.50;;;;;;;7.78;100.00;103201.22;5053844;28;20033;-35
2022/03/27 03:27:49;;;;;;;11.27;10.18;;;;;;;7.77;100.00;103199.53;5053363;28;20057;-35
2022/03/27 03:30:16;;;;;;;11.57;10.25;;;;;;;7.75;100.00;103198.81;5053408;28;20446;-35
2022/03/27 03:32:42;;;;;;;10.80;9.70;;;;;;;7.66;100.00;103181.78;5053284;28;20307;-35
2022/03/27 03:35:08;;;;;;;;;;;;;;;7.79;100.00;103189.44;5053251;28;20044;-35
2022/03/27 03:37:33;;;;;;;11.27;9.52;;;;;;;7.78;100.00;103193.13;5053297;28;19909;-35
2022/03/27 03:39:59;;;;;;;10.27;9.30;;;;;;;7.81;100.00;103191.97;5053008;28;20037;-35
2022/03/27 03:42:25;;;;;;;;;;;;;;;7.86;100.00;103195.06;5053288;28;20036;-35
2022/03/27 03:44:50;;;;;;;10.83;9.73;;;;;;;7.84;100.00;103189.81;5053008;28;19928;-35
2022/03/27 03:47:15;;;;;;;11.77;10.60;;;;;;;7.77;100.00;103196.84;5052884;28;20039;-35
2022/03/27 03:49:40;;;;;;;11.33;10.30;;;;;;;7.81;100.00;103183.88;5053246;28;20020;-35
2022/03/27 03:52:06;;;;;;;12.20;11.07;;;;;;;7.72;100.00;103194.59;5052860;28;20061;-35
2022/03/27 03:54:32;;;;;;;12.43;10.82;;;;;;;7.66;100.00;103172.81;5053401;28;20370;-35
2022/03/27 03:56:58;;;;;;;11.95;10.80;;;;;;;7.66;100.00;103178.19;5053175;28;20029;-35
2022/03/27 03:59:23;;;;;;;11.87;10.77;;;;;;;7.58;100.00;103180.84;5052808;28;20108;-35
2022/03/27 04:01:48;;;;;;;11.37;10.27;;;;;;;7.63;100.00;103195.53;5053296;28;20045;-35
2022/03/27 04:04:14;;;;;;;12.23;11.10;;;;;;;7.57;100.00;103187.22;5052994;28;20032;-35
2022/03/27 04:06:39;;;;;;;12.30;11.17;;;;;;;7.54;100.00;103174.06;5053047;28;20051;-35
2022/03/27 04:09:04;;;;;;;13.53;12.13;;;;;;;7.47;100.00;103188.16;5053329;28;20057;-35
2022/03/27 04:11:30;;;;;;;14.57;13.17;;;;;;;7.49;100.00;103199.59;5053058;28;20178;-35
2022/03/27 04:13:55;;;;;;;16.60;12.90;;;;;;;7.61;100.00;103191.28;5052394;28;20029;-35
2022/03/27 04:16:21;;;;;;;12.87;11.60;;;;;;;7.65;100.00;103204.28;5052548;28;20070;-35
2022/03/27 04:18:47;;;;;;;14.30;12.90;;;;;;;7.63;100.00;103198.22;5052198;28;20029;-35
2022/03/27 04:21:12;;;;;;;13.60;12.32;;;;;;;7.65;100.00;103198.91;5053175;28;20714;-35
2022/03/27 04:23:37;;;;;;;14.13;12.73;;;;;;;7.66;100.00;103199.75;5052155;28;20041;-35
2022/03/27 04:26:03;;;;;;;14.40;12.97;;;;;;;7.65;100.00;103187.28;5052429;28;20474;-35
2022/03/27 04:28:29;;;;;;;13.50;12.10;;;;;;;7.67;100.00;103202.31;5053064;28;20029;-35
2022/03/27 04:30:55;;;;;;;14.27;12.98;;;;;;;7.62;100.00;103195.69;5052414;28;20398;-35
2022/03/27 04:33:20;;;;;;;14.07;12.60;;;;;;;7.44;100.00;103198.38;5052422;28;20036;-35
2022/03/27 04:35:45;;;;;;;13.60;12.13;;;;;;;7.48;100.00;103195.22;5052361;28;20108;-35
2022/03/27 04:38:11;;;;;;;13.83;12.43;;;;;;;7.48;100.00;103197.91;5052315;28;20123;-35
2022/03/27 04:40:36;;;;;;;14.27;12.80;;;;;;;7.46;100.00;103199.91;5052642;28;20064;-35
2022/03/27 04:43:02;;;;;;;13.03;11.83;;;;;;;7.57;100.00;103198.84;5052364;28;20140;-35
2022/03/27 04:45:27;;;;;;;12.95;11.73;;;;;;;7.63;100.00;103200.06;5052356;28;20017;-35
2022/03/27 04:47:53;;;;;;;14.33;12.97;;;;;;;7.53;100.00;103204.69;5052360;28;20025;-35
2022/03/27 04:50:18;;;;;;;15.07;13.57;;;;;;;7.35;100.00;103191.22;5052642;28;20057;-35
2022/03/27 04:52:43;;;;;;;17.30;13.53;;;;;;;7.47;100.00;103200.78;5051965;28;20021;-35
2022/03/27 04:55:09;;;;;;;14.83;13.40;;;;;;;7.46;100.00;103202.59;5052041;28;20025;-35
2022/03/27 04:57:37;;;;;;;13.27;12.03;;;;;;;7.54;100.00;103206.38;5052223;28;20083;-35
2022/03/27 05:00:04;;;;;;;15.23;13.63;;;;;;;7.47;100.00;103203.47;5052371;28;20025;-35
2022/03/27 05:02:29;;;;;;;16.13;14.55;;;;;;;7.34;100.00;103182.28;5052419;28;20075;-36
2022/03/27 05:04:54;;;;;;;16.17;14.47;;;;;;;7.40;100.00;103208.59;5053002;28;20033;-36
2022/03/27 05:07:20;;;;;;;15.23;13.67;;;;;;;7.42;100.00;103206.59;5054722;28;20408;-36
2022/03/27 05:09:45;;;;;;;17.40;15.60;;;;;;;7.37;100.00;103217.00;5055793;28;20473;-36
2022/03/27 05:12:10;;;;;;;19.27;15.67;;;;;;;7.28;100.00;103211.66;5056653;28;20029;-36
2022/03/27 05:14:36;;;;;;;16.57;14.83;;;;;;;7.32;100.00;103213.91;5055854;28;20468;-36
2022/03/27 05:17:03;;;;;;;17.10;15.40;;;;;;;7.33;100.00;103215.59;5056706;28;20343;-36
2022/03/27 05:19:29;;;;;;;15.85;14.20;;;;;;;7.38;100.00;103213.28;5055905;28;20032;-36
2022/03/27 05:21:54;;;;;;;15.68;14.02;;;;;;;7.48;100.00;103216.75;5056389;28;20040;-34
2022/03/27 05:24:19;;;;;;;15.40;13.90;;;;;;;7.49;100.00;103214.91;5055851;28;20432;-33
2022/03/27 05:26:44;;;;;;;14.87;13.40;;;;;;;7.46;100.00;103216.03;5055784;28;20024;-34
2022/03/27 05:29:10;;;;;;;13.83;12.53;;;;;;;7.49;100.00;103215.75;5055387;28;20036;-34
2022/03/27 05:31:36;;;;;;;16.15;14.32;;;;;;;7.41;100.00;103221.03;5055584;28;20048;-35
2022/03/27 05:34:03;;;;;;;15.53;13.70;;;;;;;7.39;100.00;103219.53;5055790;28;20021;-34
2022/03/27 05:36:28;;;;;;;14.80;13.35;;;;;;;7.31;100.00;103212.19;5054238;28;20056;-34
2022/03/27 05:38:54;;;;;;;13.73;12.40;;;;;;;7.37;100.00;103210.72;5055352;28;20163;-34
2022/03/27 05:41:19;;;;;;;15.60;13.90;;;;;;;7.28;100.00;103217.06;5055977;28;20060;-34
2022/03/27 05:43:44;;;;;;;15.57;14.07;;;;;;;7.29;100.00;103214.19;5055414;28;20105;-34
2022/03/27 05:46:10;;;;;;;15.50;13.50;;;;;;;7.37;100.00;103219.69;5056120;28;20088;-35
2022/03/27 05:48:35;;;;;;;15.20;13.70;;;;;;;7.21;100.00;103216.78;5055157;28;20029;-35
2022/03/27 05:51:01;;;;;;;15.93;14.33;;;;;;;7.27;100.00;103223.41;5054801;28;20535;-34
2022/03/27 05:53:26;;;;;;;17.20;15.40;;;;;;;7.09;100.00;103218.84;5054891;28;20464;-35
2022/03/27 05:55:52;;;;;;;14.83;13.33;;;;;;;7.12;100.00;103215.84;5055168;28;20052;-35
2022/03/27 05:58:17;;;;;;;15.00;13.40;;;;;;;7.12;100.00;103233.84;5055111;28;20465;-34
2022/03/27 06:00:43;;;;;;;14.40;13.00;;;;;;;7.03;100.00;103227.53;5055167;28;20036;-34
2022/03/27 06:03:08;;;;;;;12.98;11.68;;;;;;;7.06;100.00;103231.75;5054991;28;20032;-35
2022/03/27 06:05:34;;;;;;;20.63;13.87;;;;;;;7.00;100.00;103235.88;5055742;28;20025;-34
2022/03/27 06:07:59;;;;;;;18.17;13.90;;;;;;;6.95;100.00;103241.72;5054633;28;20123;-35
2022/03/27 06:10:31;;;;;;;14.88;13.35;;;;;;;7.01;100.00;103234.03;5054964;28;20068;-34
2022/03/27 06:12:57;;;;;;;13.85;12.40;;;;;;;7.09;100.00;103252.97;5054712;28;20041;-34
2022/03/27 06:15:22;;;;;;;;;;;;;;;7.14;100.00;103250.69;5055932;28;20410;-34
2022/03/27 06:17:50;;;;;;;16.42;13.32;;;;;;;7.09;100.00;103247.59;5054898;28;19963;-35
2022/03/27 06:20:18;;;;;;;17.77;13.82;;;;;;;6.94;100.00;103240.03;5054587;28;20079;-35
2022/03/27 06:22:44;;;;;;;15.02;13.00;;;;;;;7.01;100.00;103255.56;5054537;28;20072;-35
2022/03/27 06:25:12;;;;;;;17.20;13.70;;;;;;;6.88;100.00;103248.69;5054559;28;20033;-35
2022/03/27 06:27:38;;;;;;;15.88;13.23;;;;;;;6.89;100.00;103244.16;5054536;28;20029;-34
2022/03/27 06:30:08;;;;;;;17.00;14.88;;;;;;;6.76;100.00;103243.63;5053183;28;20037;-34
2022/03/27 06:32:34;;;;;;;17.85;14.32;;;;;;;6.91;100.00;103251.06;5053993;28;20025;-35
2022/03/27 06:34:59;;;;;;;;;;;;;;;6.99;100.00;103257.56;5054843;28;20061;-35
2022/03/27 06:37:26;;;;;;;18.50;14.80;;;;;;;6.97;100.00;103258.53;5054331;28;19958;-34
2022/03/27 06:39:52;;;;;;;18.13;15.48;;;;;;;6.87;100.00;103246.13;5054733;28;20309;-34
2022/03/27 06:42:17;;;;;;;18.33;14.93;;;;;;;6.94;100.00;103258.84;5053952;28;20029;-35
2022/03/27 06:44:43;;;;;;;21.80;16.30;;;;;;;6.91;100.00;103259.13;5054746;28;20115;-34
2022/03/27 06:47:09;;;;;;;23.77;17.53;;;;;;;6.72;100.00;103243.06;5054182;28;20031;-34
2022/03/27 06:49:35;;;;;;;24.02;19.30;;;;;;;6.63;100.00;103258.25;5054139;28;20021;-34
2022/03/27 06:52:01;;;;;;;21.75;16.95;;;;;;;6.69;100.00;103252.31;5053775;28;20108;-34
2022/03/27 06:54:29;;;;;;;22.10;16.83;;;;;;;6.67;100.00;103261.50;5054391;28;20083;-34
2022/03/27 06:56:55;;;;;;;21.02;16.35;;;;;;;6.71;100.00;103257.53;5054322;28;20444;-34
2022/03/27 06:59:20;;;;;;;20.27;15.13;;;;;;;6.77;100.00;103256.94;5053692;28;20025;-34
2022/03/27 07:04:29;;;;;;;20.90;16.13;;;;;;;6.96;100.00;103258.69;5054312;28;20099;-34
2022/03/27 07:06:54;;;;;;;19.93;15.93;;;;;;;6.92;100.00;103257.28;5053814;28;20428;-34
2022/03/27 07:09:19;;;;;;;21.50;16.40;;;;;;;6.94;100.00;103263.38;5053365;28;20033;-34
2022/03/27 07:11:46;;;;;;;19.60;15.67;;;;;;;6.99;100.00;103262.94;5053887;28;20029;-34
2022/03/27 07:14:12;;;;;;;21.00;15.52;;;;;;;6.86;100.00;103256.03;5053595;28;20025;-34
2022/03/27 07:16:38;;;;;;;19.60;15.77;;;;;;;6.85;100.00;103262.44;5053949;28;20464;-34
2022/03/27 07:19:04;;;;;;;20.33;16.33;;;;;;;6.78;100.00;103247.00;5053501;28;20367;-34
2022/03/27 07:21:29;;;;;;;19.47;14.63;;;;;;;6.87;100.00;103259.59;5053473;28;20037;-34
2022/03/27 07:23:54;;;;;;;18.20;14.07;;;;;;;7.03;100.00;103250.88;5054005;28;20036;-34
2022/03/27 07:26:20;;;;;;;19.30;14.57;;;;;;;7.14;100.00;103266.84;5052890;28;20036;-34
2022/03/27 07:28:45;;;;;;;16.63;14.10;;;;;;;7.10;100.00;103254.69;5052973;28;20474;-34
2022/03/27 07:31:13;;;;;;;14.73;13.13;;;;;;;7.03;100.00;103246.38;5053329;28;20039;-34
2022/03/27 07:33:39;;;;;;;15.00;12.65;;;;;;;7.00;100.00;103253.88;5053408;28;20086;-34
2022/03/27 07:36:04;;;;;;;16.02;12.43;;;;;;;6.84;100.00;103241.06;5054366;28;20029;-34
2022/03/27 07:38:31;;;;;;;17.33;14.15;;;;;;;7.09;100.00;103258.38;5053156;28;20388;-34
2022/03/27 07:40:57;;;;;;;14.55;12.18;;;;;;;7.22;100.00;103243.56;5053947;28;20069;-34
2022/03/27 07:43:23;;;;;;;16.67;13.75;;;;;;;7.21;100.00;103249.09;5053608;28;20029;-34
2022/03/27 07:45:48;;;;;;;14.57;12.33;;;;;;;7.35;100.00;103251.28;5053625;28;20082;-34
2022/03/27 07:48:13;;;;;;;15.40;13.03;;;;;;;7.33;100.00;103249.75;5053321;28;20029;-34
2022/03/27 07:50:39;;;;;;;14.67;11.97;;;;;;;7.43;100.00;103243.28;5053042;28;20025;-34
2022/03/27 07:53:05;;;;;;;15.23;13.10;;;;;;;7.37;100.00;103253.81;5053290;28;20033;-34
2022/03/27 07:55:31;;;;;;;16.27;13.82;;;;;;;7.31;100.00;103257.94;5053439;28;20442;-34
2022/03/27 07:57:57;;;;;;;17.73;14.55;;;;;;;7.11;100.00;103224.91;5052923;28;20025;-34
2022/03/27 08:00:23;;;;;;;15.85;13.50;;;;;;;7.29;100.00;103256.41;5053986;28;20080;-34
2022/03/27 08:02:48;;;;;;;;;;;;;;;7.29;100.00;103256.41;5054469;28;20070;-34
2022/03/27 08:05:14;;;;;;;19.73;15.38;;;;;;;7.12;100.00;103252.66;5053238;28;20011;-34
2022/03/27 08:07:40;;;;;;;16.20;14.27;;;;;;;7.21;100.00;103254.47;5053234;28;20047;-34
2022/03/27 08:10:06;;;;;;;17.83;13.20;;;;;;;7.29;100.00;103262.66;5053329;28;20156;-34
2022/03/27 08:12:31;;;;;;;14.50;12.95;;;;;;;7.39;100.00;103252.66;5052574;28;20029;-34
2022/03/27 08:14:57;;;;;;;15.40;13.18;;;;;;;7.39;100.00;103252.66;5053487;28;20037;-34
2022/03/27 08:17:23;;;;;;;15.40;12.80;;;;;;;7.47;100.00;103238.47;5053193;28;20165;-35
2022/03/27 08:19:49;;;;;;;15.57;13.57;;;;;;;7.54;100.00;103254.84;5053513;28;20029;-34
2022/03/27 08:22:15;;;;;;;15.23;12.20;;;;;;;7.63;99.68;103253.94;5052723;28;20076;-34
2022/03/27 08:24:42;;;;;;;13.05;11.65;;;;;;;7.67;98.96;103250.78;5053528;28;20397;-34
2022/03/27 08:27:08;;;;;;;;;;;;;;;7.82;98.84;103252.94;5053147;28;20397;-35
2022/03/27 08:29:37;;;;;;;13.70;12.23;;;;;;;7.72;97.82;103258.41;5052910;28;19915;-35
2022/03/27 08:32:05;;;;;;;14.88;12.52;;;;;;;7.63;98.04;103253.94;5052565;28;20035;-35
2022/03/27 08:34:34;;;;;;;15.05;13.15;;;;;;;7.53;99.28;103261.22;5053404;28;20435;-35
2022/03/27 08:37:01;;;;;;;14.57;12.65;;;;;;;7.57;98.96;103249.16;5052435;28;20170;-35
2022/03/27 08:39:27;;;;;;;14.63;12.93;;;;;;;7.50;98.96;103259.66;5052944;28;20028;-35
2022/03/27 08:41:54;;;;;;;;;;;;;;;7.54;97.67;103261.06;5054665;28;20021;-35
2022/03/27 08:44:21;;;;;;;12.20;10.93;;;;;;;7.67;98.51;103263.41;5056684;28;20264;-35
2022/03/27 08:46:48;;;;;;;12.00;10.77;;;;;;;7.53;97.07;103266.63;5056441;28;20060;-35
2022/03/27 08:49:16;;;;;;;13.90;11.18;;;;;;;7.71;96.67;103262.06;5056598;28;20029;-35
2022/03/27 08:52:01;;;;;;;12.45;11.15;;;;;;;7.77;96.29;103260.63;5057059;28;20342;-35
2022/03/27 08:54:35;;;;;;;13.35;12.00;;;;;;;8.14;95.96;103258.59;5056645;28;20121;-35
2022/03/27 08:57:08;;;;;;;13.77;12.38;;;;;;;8.39;93.30;103259.66;5056716;28;20025;-35
2022/03/27 08:59:34;;;;;;;12.45;11.25;;;;;;;8.66;91.10;103260.53;5057083;28;20461;-35
2022/03/27 09:02:00;;;;;;;13.32;11.68;;;;;;;8.73;90.69;103237.28;5056482;28;20128;-35
2022/03/27 09:04:26;;;;;;;12.55;11.27;;;;;;;8.71;88.87;103250.94;5057125;28;20071;-35
2022/03/27 09:06:52;;;;;;;11.55;10.35;;;;;;;8.99;89.09;103246.19;5056873;28;20036;-35
2022/03/27 09:09:17;;;;;;;13.17;11.77;;;;;;;9.28;89.46;103258.47;5056879;28;20021;-35
2022/03/27 09:11:45;;;;;;;11.20;10.10;;;;;;;9.17;86.75;103258.75;5056707;28;20331;-35
2022/03/27 09:14:14;;;;;;;11.27;10.27;;;;;;;9.10;86.02;103255.00;5056029;28;20477;-35
2022/03/27 09:17:06;;;;;;;11.50;9.95;;;;;;;9.46;87.17;103258.31;5056317;28;20027;-35
2022/03/27 09:19:39;;;;;;;11.10;10.00;;;;;;;9.45;84.74;103254.78;5056199;28;20062;-35
2022/03/27 09:22:13;;;;;;;11.63;10.50;;;;;;;9.59;84.56;103255.16;5056343;28;20060;-35
2022/03/27 09:24:40;;;;;;;13.13;10.80;;;;;;;9.48;83.08;103248.22;5056293;28;20064;-35
2022/03/27 09:27:05;;;;;;;11.55;10.27;;;;;;;9.76;83.93;103256.88;5055864;28;20040;-35
2022/03/27 09:30:06;;;;;;;12.13;10.80;;;;;;;9.65;83.48;103254.50;5055822;28;20029;-35
2022/03/27 09:32:35;;;;;;;11.65;10.45;;;;;;;9.81;83.67;103238.31;5056040;28;20458;-35
2022/03/27 09:35:14;;;;;;;12.07;10.88;;;;;;;9.96;83.27;103243.91;5055712;28;20025;-35
2022/03/27 09:37:48;;;;;;;12.38;11.10;;;;;;;10.15;81.72;103240.00;5056500;28;20017;-35
2022/03/27 09:40:15;;;;;;;12.15;10.98;;;;;;;10.14;80.79;103243.72;5055674;28;20025;-36
2022/03/27 09:42:42;;;;;;;11.73;10.20;;;;;;;10.20;80.28;103234.91;5055269;28;20037;-35
2022/03/27 09:45:23;;;;;;;12.00;10.90;;;;;;;10.14;80.41;103239.16;5055669;28;20040;-35
2022/03/27 09:47:53;;;;;;;12.55;11.25;;;;;;;10.02;80.96;103208.06;5055474;28;20071;-35
2022/03/27 09:50:35;;;;;;;12.07;10.93;;;;;;;10.25;81.70;103227.19;5055568;28;20029;-35
2022/03/27 09:53:25;;;;;;;11.90;10.68;;;;;;;10.51;80.90;103233.22;5054978;28;20029;-35
2022/03/27 09:56:01;;;;;;;12.63;11.20;;;;;;;10.15;79.88;103230.03;5055479;28;20539;-35
2022/03/27 09:58:37;;;;;;;11.93;10.75;;;;;;;10.28;79.61;103224.13;5055734;28;20082;-35
2022/03/27 10:01:24;;;;;;;12.52;11.13;;;;;;;10.40;80.17;103224.63;5055392;28;20171;-35
2022/03/27 10:03:59;;;;;;;12.30;11.02;;;;;;;10.67;80.13;103221.50;5055851;28;20031;-35
2022/03/27 10:06:41;;;;;;;13.00;10.93;;;;;;;10.93;78.12;103212.28;5055684;28;20029;-35
2022/03/27 10:09:09;;;;;;;13.20;11.85;;;;;;;11.06;77.75;103218.81;5055240;28;20155;-35
2022/03/27 10:11:36;;;;;;;11.95;10.75;;;;;;;11.26;76.66;103210.25;5054848;28;20466;-35
2022/03/27 10:14:04;;;;;;;11.75;10.25;;;;;;;11.49;77.36;103202.16;5055084;28;20355;-35
2022/03/27 10:16:33;;;;;;;12.10;10.90;;;;;;;11.45;75.83;103192.72;5055398;28;20068;-35
2022/03/27 10:19:20;;;;;;;11.63;10.43;;;;;;;11.79;76.37;103203.13;5054964;28;20026;-35
2022/03/27 10:21:49;;;;;;;11.00;9.95;;;;;;;11.85;74.31;103197.00;5051647;28;20049;-35
2022/03/27 10:24:15;;;;;;;12.15;10.95;;;;;;;11.76;73.69;103192.63;5055147;28;20021;-35
2022/03/27 10:26:44;;;;;;;10.55;9.55;;;;;;;12.03;75.63;103183.97;5054974;28;20029;-35
2022/03/27 10:29:11;;;;;;;11.55;10.40;;;;;;;11.94;72.82;103185.06;5055096;28;20496;-35
2022/03/27 10:31:38;;;;;;;11.85;10.75;;;;;;;11.92;73.01;103186.28;5054962;28;20036;-35
2022/03/27 10:34:05;;;;;;;11.05;9.95;;;;;;;12.17;73.99;103185.03;5054834;28;20059;-35
2022/03/27 10:36:53;;;;;;;10.88;9.88;;;;;;;12.39;73.32;103180.53;5054888;28;20028;-35
2022/03/27 10:39:28;;;;;;;11.50;10.30;;;;;;;12.42;72.30;103182.06;5054897;28;20044;-35
2022/03/27 10:42:18;;;;;;;11.93;10.75;;;;;;;12.72;71.61;103167.44;5054342;28;20024;-35
2022/03/27 10:45:02;;;;;;;11.05;9.90;;;;;;;12.83;70.45;103166.13;5054433;28;20110;-35
2022/03/27 10:47:30;;;;;;;10.15;9.05;;;;;;;12.94;68.72;103143.09;5055020;28;20033;-35
2022/03/27 10:50:01;;;;;;;9.70;8.73;;;;;;;12.87;66.01;103162.00;5054365;28;20033;-35
2022/03/27 10:52:27;;;;;;;9.00;7.85;;;;;;;12.70;66.48;103147.81;5054678;28;20374;-35
2022/03/27 10:54:58;;;;;;;9.13;8.20;;;;;;;12.83;65.64;103160.69;5054304;28;20033;-35
2022/03/27 10:57:35;;;;;;;9.00;8.05;;;;;;;13.06;65.85;103161.38;5054467;28;20028;-35
2022/03/27 11:00:01;;;;;;;10.20;7.88;;;;;;;12.95;63.59;103125.75;5054711;28;20108;-35
2022/03/27 11:02:50;;;;;;;7.95;7.15;;;;;;;13.25;64.76;103154.53;5054314;28;20061;-35
2022/03/27 11:05:36;;;;;;;8.30;7.45;;;;;;;13.44;64.28;103155.78;5052836;28;20048;-35
2022/03/27 11:08:23;;;;;;;8.32;7.57;;;;;;;13.49;64.54;103150.59;5054039;28;20029;-35
2022/03/27 11:10:55;;;;;;;8.32;7.53;;;;;;;13.71;62.29;103159.56;5049599;28;20037;-35
2022/03/27 11:13:26;;;;;;;8.25;7.18;;;;;;;13.86;61.96;103148.63;5054121;28;20082;-35
2022/03/27 11:16:05;;;;;;;7.85;7.05;;;;;;;13.79;61.45;103143.13;5054003;28;20025;-35
2022/03/27 11:18:41;;;;;;;8.38;7.43;;;;;;;13.66;60.65;103137.56;5053555;28;20029;-35
2022/03/27 11:21:09;;;;;;;7.10;6.40;;;;;;;13.86;59.20;103132.31;5054059;28;20033;-35
2022/03/27 11:23:37;;;;;;;7.70;6.93;;;;;;;14.07;58.37;103128.69;5053379;28;20021;-35
2022/03/27 11:26:05;;;;;;;6.93;6.22;;;;;;;14.30;57.61;103121.09;5053668;28;20354;-35